Lexington, Michigan
Current Conditions -  °F | °C
As of 12:51 AM on Thursday 27 Nov 2014 (Local Time) from CYZR Reporting Station
Light Snow Light Snow  
Wind Chill: -4°   Ceiling: 1400
Heat Index:   Visibility: 9mi
Dew Point: -2°   Wind: 7mph
Humidity: 87%   Direction: 290°WNW
Pressure: 30.07"   Gusts: NA
Location:  43.27°N, 82.53°W
Report Text: CYZR 270551Z AUTO 29006KT 9SM -SN OVC014 M00/M02 A3007 RMK SLP191
Loading
Personal Weather Stations






























Interactive Weather Map New forecast layout! Learn more

10-Day Weather Forecast

Advertisements
Track Severe Weather on mobile